createdAt,value
2023-04-30T00:00:37.823Z,18.50
2023-04-30T00:04:37.657Z,16.40
2023-04-30T00:08:37.968Z,16.00
2023-04-30T00:12:38.079Z,18.90
2023-04-30T00:16:37.843Z,20.90
2023-04-30T00:20:37.874Z,19.10
2023-04-30T00:24:37.915Z,20.60
2023-04-30T00:28:37.740Z,21.10
2023-04-30T00:32:37.889Z,22.50
2023-04-30T00:36:38.612Z,20.90
2023-04-30T00:40:39.515Z,20.80
2023-04-30T00:44:37.913Z,23.40
2023-04-30T00:48:38.332Z,22.60
2023-04-30T00:52:37.865Z,22.70
2023-04-30T00:56:38.839Z,21.30
2023-04-30T01:00:38.535Z,20.00
2023-04-30T01:04:38.022Z,24.10
2023-04-30T01:08:37.882Z,22.30
2023-04-30T01:12:45.979Z,27.00
2023-04-30T01:16:46.065Z,23.90
2023-04-30T01:20:47.321Z,25.70
2023-04-30T01:24:57.661Z,28.20
2023-04-30T01:28:41.637Z,23.90
2023-04-30T01:32:37.931Z,26.70
2023-04-30T01:40:43.114Z,30.60
2023-04-30T01:44:48.950Z,28.90
2023-04-30T01:48:45.740Z,29.00
2023-04-30T01:52:45.242Z,28.90
2023-04-30T01:56:44.038Z,29.90
2023-04-30T02:00:38.089Z,33.00
2023-04-30T02:04:38.178Z,31.00
2023-04-30T02:08:38.027Z,33.60
2023-04-30T02:12:38.374Z,33.00
2023-04-30T02:16:38.176Z,35.40
2023-04-30T02:20:38.320Z,32.80
2023-04-30T02:24:38.172Z,31.80
2023-04-30T02:28:38.188Z,35.60
2023-04-30T02:32:38.278Z,34.40
2023-04-30T02:36:38.401Z,34.00
2023-04-30T02:40:39.633Z,33.00
2023-04-30T02:44:38.493Z,35.60
2023-04-30T02:48:38.132Z,34.80
2023-04-30T02:52:38.256Z,38.40
2023-04-30T02:56:38.554Z,34.90
2023-04-30T03:00:38.349Z,37.90
2023-04-30T03:04:38.589Z,38.60
2023-04-30T03:08:38.281Z,37.70
2023-04-30T03:12:38.278Z,38.90
2023-04-30T03:16:38.398Z,40.90
2023-04-30T03:20:38.462Z,36.10
2023-04-30T03:28:38.549Z,36.20
2023-04-30T03:32:38.292Z,37.00
2023-04-30T03:36:38.367Z,35.80
2023-04-30T03:40:38.360Z,39.00
2023-04-30T03:44:38.463Z,38.10
2023-04-30T03:48:38.386Z,39.00
2023-04-30T03:52:38.487Z,42.60
2023-04-30T03:56:38.619Z,38.50
2023-04-30T04:00:40.479Z,39.70
2023-04-30T04:04:38.414Z,40.40
2023-04-30T04:08:42.111Z,38.40
2023-04-30T04:12:38.324Z,39.70
2023-04-30T04:16:38.604Z,37.00
2023-04-30T04:20:38.379Z,36.00
2023-04-30T04:24:38.582Z,35.30
2023-04-30T04:28:38.466Z,33.90
2023-04-30T04:32:45.910Z,32.40
2023-04-30T04:36:38.490Z,34.10
2023-04-30T04:40:39.168Z,33.80
2023-04-30T04:44:38.522Z,36.00
2023-04-30T04:48:38.605Z,33.90
2023-04-30T04:52:38.533Z,34.50
2023-04-30T04:56:38.592Z,35.40
2023-04-30T05:00:38.530Z,38.30
2023-04-30T05:04:38.553Z,33.50
2023-04-30T05:08:38.605Z,35.30
2023-04-30T05:12:38.706Z,42.40
2023-04-30T05:16:38.753Z,35.30
2023-04-30T05:20:38.619Z,35.40
2023-04-30T05:24:38.687Z,36.70
2023-04-30T05:28:38.594Z,35.20
2023-04-30T05:32:38.598Z,35.20
2023-04-30T05:36:38.910Z,35.30
2023-04-30T05:40:39.831Z,34.70
2023-04-30T05:44:39.496Z,33.10
2023-04-30T05:48:39.070Z,35.50
2023-04-30T05:52:38.896Z,36.60
2023-04-30T05:56:38.774Z,34.90
2023-04-30T06:04:39.191Z,34.80
2023-04-30T06:12:39.248Z,33.50
2023-04-30T06:20:39.004Z,37.50
2023-04-30T06:24:38.724Z,35.30
2023-04-30T06:28:38.828Z,33.40
2023-04-30T06:32:38.856Z,33.50
2023-04-30T06:36:38.858Z,32.40
2023-04-30T06:40:39.027Z,34.40
2023-04-30T06:44:38.958Z,32.20
2023-04-30T06:48:38.844Z,33.60
2023-04-30T06:52:38.894Z,37.10
2023-04-30T06:56:38.844Z,34.90
2023-04-30T07:00:39.168Z,35.30
2023-04-30T07:04:38.834Z,34.50
2023-04-30T07:08:40.286Z,33.20
2023-04-30T07:12:38.969Z,31.20
2023-04-30T07:16:38.923Z,29.90
2023-04-30T07:20:39.020Z,32.30
2023-04-30T07:24:38.924Z,30.90
2023-04-30T07:28:39.036Z,32.10
2023-04-30T07:32:40.144Z,32.30
2023-04-30T07:36:39.017Z,33.40
2023-04-30T07:40:38.918Z,35.60
2023-04-30T07:44:40.144Z,34.60
2023-04-30T07:48:38.968Z,38.80
2023-04-30T07:52:38.984Z,33.40
2023-04-30T07:56:39.563Z,33.60
2023-04-30T08:00:39.476Z,34.80
2023-04-30T08:04:39.095Z,35.80
2023-04-30T08:08:39.082Z,33.80
2023-04-30T08:12:39.159Z,35.10
2023-04-30T08:16:39.293Z,33.30
2023-04-30T08:20:39.317Z,35.30
2023-04-30T08:24:39.435Z,30.20
2023-04-30T08:28:39.068Z,33.20
2023-04-30T08:32:39.274Z,32.30
2023-04-30T08:36:39.074Z,32.40
2023-04-30T08:40:51.078Z,31.70
2023-04-30T08:44:42.719Z,30.30
2023-04-30T08:48:40.569Z,26.30
2023-04-30T08:52:39.443Z,29.80
2023-04-30T08:56:40.072Z,32.70
2023-04-30T09:00:40.733Z,31.20
2023-04-30T09:04:39.401Z,25.60
2023-04-30T09:08:41.448Z,28.50
2023-04-30T09:12:42.335Z,31.40
2023-04-30T09:16:48.195Z,26.80
2023-04-30T09:20:53.465Z,29.20
2023-04-30T09:24:45.582Z,29.80
2023-04-30T09:28:57.290Z,26.20
2023-04-30T09:32:53.758Z,24.60
2023-04-30T09:36:53.715Z,25.10
2023-04-30T09:40:40.763Z,25.70
2023-04-30T09:44:40.939Z,24.90
2023-04-30T09:48:40.906Z,26.20
2023-04-30T09:52:39.746Z,24.40
2023-04-30T09:56:39.681Z,24.50
2023-04-30T10:00:41.628Z,24.50
2023-04-30T10:04:43.592Z,24.00
2023-04-30T10:08:41.589Z,16.80
2023-04-30T10:12:50.487Z,20.20
2023-04-30T10:16:46.813Z,19.70
2023-04-30T10:20:40.705Z,22.10
2023-04-30T10:24:41.474Z,19.70
2023-04-30T10:28:40.468Z,20.30
2023-04-30T10:32:47.358Z,20.70
2023-04-30T10:36:43.689Z,24.10
2023-04-30T10:40:39.995Z,17.80
2023-04-30T10:44:39.914Z,18.50
2023-04-30T10:48:39.542Z,19.90
2023-04-30T10:52:39.616Z,19.30
2023-04-30T10:56:39.824Z,18.90
2023-04-30T11:00:50.668Z,18.40
2023-04-30T11:04:59.459Z,16.20
2023-04-30T11:08:43.448Z,15.70
2023-04-30T11:12:40.653Z,14.70
2023-04-30T11:16:39.725Z,13.00
2023-04-30T11:20:40.933Z,12.30
2023-04-30T11:24:49.622Z,11.80
2023-04-30T11:28:50.321Z,11.30
2023-04-30T11:32:42.884Z,33.80
2023-04-30T11:36:40.448Z,11.70
2023-04-30T11:40:39.645Z,11.50
2023-04-30T11:44:39.805Z,12.00
2023-04-30T11:48:41.301Z,13.90
2023-04-30T11:52:40.823Z,12.20
2023-04-30T11:56:41.391Z,13.40
2023-04-30T12:04:42.314Z,13.40
2023-04-30T12:08:41.014Z,11.10
2023-04-30T12:12:42.582Z,11.20
2023-04-30T12:16:41.707Z,9.80
2023-04-30T12:20:41.041Z,11.80
2023-04-30T12:24:39.951Z,10.80
2023-04-30T12:28:40.287Z,9.50
2023-04-30T12:32:41.684Z,10.60
2023-04-30T12:36:41.855Z,9.20
2023-04-30T12:40:45.167Z,11.10
2023-04-30T12:48:43.857Z,10.20
2023-04-30T12:52:40.146Z,10.40
2023-04-30T12:56:08.390Z,8.10
2023-04-30T12:56:57.822Z,8.10
2023-04-30T13:00:44.765Z,15.10
2023-04-30T13:04:41.634Z,12.30
2023-04-30T13:08:56.193Z,12.10
2023-04-30T13:12:40.211Z,11.20
2023-04-30T13:16:40.386Z,10.90
2023-04-30T13:20:40.394Z,9.90
2023-04-30T13:24:39.898Z,10.20
2023-04-30T13:28:39.965Z,12.30
2023-04-30T13:32:40.239Z,12.30
2023-04-30T13:36:40.090Z,9.40
2023-04-30T13:40:40.174Z,8.20
2023-04-30T13:44:40.078Z,8.50
2023-04-30T13:48:40.149Z,8.60
2023-04-30T13:56:40.236Z,8.60
2023-04-30T14:00:40.328Z,9.10
2023-04-30T14:04:41.727Z,8.20
2023-04-30T14:08:40.090Z,8.50
2023-04-30T14:12:40.208Z,9.70
2023-04-30T14:16:40.259Z,6.90
2023-04-30T14:20:40.501Z,9.80
2023-04-30T14:24:40.203Z,8.80
2023-04-30T14:28:40.141Z,51.40
2023-04-30T14:32:40.149Z,14.50
2023-04-30T14:36:40.371Z,6.40
2023-04-30T14:40:40.251Z,8.00
2023-04-30T14:44:40.279Z,7.90
2023-04-30T14:52:41.114Z,6.70
2023-04-30T14:56:40.478Z,6.80
2023-04-30T15:00:40.353Z,6.30
2023-04-30T15:04:44.952Z,6.50
2023-04-30T15:12:40.814Z,5.90
2023-04-30T15:16:40.337Z,7.50
2023-04-30T15:20:40.717Z,6.80
2023-04-30T15:24:40.304Z,7.40
2023-04-30T15:28:40.418Z,6.60
2023-04-30T15:32:40.634Z,8.30
2023-04-30T15:36:40.345Z,7.30
2023-04-30T15:40:40.508Z,6.90
2023-04-30T15:44:40.527Z,8.00
2023-04-30T15:48:40.388Z,8.20
2023-04-30T15:52:40.474Z,7.50
2023-04-30T15:56:40.360Z,8.20
2023-04-30T16:00:40.521Z,11.80
2023-04-30T16:04:40.989Z,8.20
2023-04-30T16:08:41.158Z,8.60
2023-04-30T16:12:40.497Z,7.10
2023-04-30T16:16:40.704Z,8.60
2023-04-30T16:20:41.031Z,7.60
2023-04-30T16:24:40.453Z,10.00
2023-04-30T16:28:40.419Z,9.30
2023-04-30T16:32:40.630Z,10.40
2023-04-30T16:36:40.760Z,7.40
2023-04-30T16:40:41.091Z,7.00
2023-04-30T16:44:40.804Z,10.60
2023-04-30T16:48:40.472Z,6.20
2023-04-30T16:52:40.681Z,8.80
2023-04-30T16:56:40.605Z,6.80
2023-04-30T17:00:40.957Z,8.70
2023-04-30T17:04:40.696Z,7.20
2023-04-30T17:08:40.880Z,7.70
2023-04-30T17:12:40.755Z,9.50
2023-04-30T17:16:40.667Z,9.80
2023-04-30T17:20:40.813Z,6.90
2023-04-30T17:24:40.774Z,11.00
2023-04-30T17:32:41.339Z,9.40
2023-04-30T17:36:40.948Z,11.10
2023-04-30T17:40:41.068Z,11.70
2023-04-30T17:44:41.198Z,9.90
2023-04-30T17:48:40.715Z,13.00
2023-04-30T17:52:40.737Z,11.10
2023-04-30T17:56:40.884Z,10.70
2023-04-30T18:00:42.189Z,10.10
2023-04-30T18:04:40.677Z,11.10
2023-04-30T18:12:40.971Z,13.20
2023-04-30T18:16:41.076Z,10.50
2023-04-30T18:20:40.963Z,10.70
2023-04-30T18:24:41.388Z,14.40
2023-04-30T18:28:41.451Z,9.10
2023-04-30T18:32:42.261Z,11.40
2023-04-30T18:36:42.039Z,8.60
2023-04-30T18:40:40.979Z,11.10
2023-04-30T18:44:41.271Z,10.30
2023-04-30T18:48:40.782Z,7.90
2023-04-30T18:52:41.190Z,9.40
2023-04-30T18:56:40.900Z,9.90
2023-04-30T19:00:41.847Z,9.50
2023-04-30T19:04:40.822Z,10.40
2023-04-30T19:08:41.292Z,9.80
2023-04-30T19:12:42.918Z,11.10
2023-04-30T19:16:41.263Z,11.80
2023-04-30T19:20:41.833Z,10.40
2023-04-30T19:24:41.217Z,11.30
2023-04-30T19:28:40.953Z,13.20
2023-04-30T19:32:41.261Z,13.50
2023-04-30T19:40:45.533Z,13.60
2023-04-30T19:44:41.028Z,14.30
2023-04-30T19:48:40.978Z,16.00
2023-04-30T19:52:40.977Z,13.30
2023-04-30T19:56:41.296Z,16.40
2023-04-30T20:00:43.931Z,16.00
2023-04-30T20:04:41.203Z,17.00
2023-04-30T20:08:41.116Z,16.90
2023-04-30T20:16:41.348Z,13.80
2023-04-30T20:20:41.252Z,14.50
2023-04-30T20:24:43.433Z,16.70
2023-04-30T20:28:41.134Z,14.10
2023-04-30T20:32:41.445Z,13.90
2023-04-30T20:36:41.110Z,15.00
2023-04-30T20:40:41.650Z,13.90
2023-04-30T20:44:41.191Z,12.30
2023-04-30T20:48:41.509Z,12.30
2023-04-30T20:52:41.460Z,13.80
2023-04-30T20:56:43.953Z,14.00
2023-04-30T21:00:41.335Z,12.50
2023-04-30T21:04:41.282Z,13.10
2023-04-30T21:08:41.200Z,13.60
2023-04-30T21:16:41.860Z,11.20
2023-04-30T21:24:41.553Z,11.50
2023-04-30T21:28:41.257Z,12.80
2023-04-30T21:32:42.811Z,9.80
2023-04-30T21:36:41.391Z,15.40
2023-04-30T21:40:42.310Z,12.30
2023-04-30T21:44:41.325Z,13.40
2023-04-30T21:48:41.573Z,10.70
2023-04-30T21:52:41.608Z,11.30
2023-04-30T21:56:41.498Z,13.90
2023-04-30T22:00:42.033Z,12.20
2023-04-30T22:04:41.568Z,13.00
2023-04-30T22:08:41.488Z,10.10
2023-04-30T22:12:42.135Z,12.10
2023-04-30T22:16:41.445Z,12.20
2023-04-30T22:20:41.633Z,12.10
2023-04-30T22:24:41.723Z,14.80
2023-04-30T22:28:41.531Z,13.00
2023-04-30T22:32:41.472Z,13.80
2023-04-30T22:40:41.684Z,11.80
2023-04-30T22:44:42.498Z,12.60
2023-04-30T22:48:43.333Z,13.40
2023-04-30T22:52:41.613Z,12.70
2023-04-30T22:56:41.854Z,14.50
2023-04-30T23:00:41.746Z,14.80
2023-04-30T23:08:41.811Z,12.80
2023-04-30T23:12:41.553Z,11.40
2023-04-30T23:16:41.932Z,12.30
2023-04-30T23:20:42.129Z,12.60
2023-04-30T23:24:41.715Z,15.60
2023-04-30T23:28:41.748Z,13.70
2023-04-30T23:32:41.784Z,14.40
2023-04-30T23:36:42.001Z,13.10
2023-04-30T23:40:41.923Z,18.00
2023-04-30T23:44:41.665Z,14.40
2023-04-30T23:48:41.894Z,15.00
2023-04-30T23:52:41.756Z,14.30
